createdAt,value
2023-05-17T00:00:01.707Z,7.70
2023-05-17T00:02:30.747Z,5.68
2023-05-17T00:04:59.164Z,8.95
2023-05-17T00:07:27.548Z,4.65
2023-05-17T00:09:55.933Z,8.25
2023-05-17T00:12:24.271Z,6.00
2023-05-17T00:14:53.561Z,6.18
2023-05-17T00:17:21.859Z,4.78
2023-05-17T00:19:50.218Z,10.82
2023-05-17T00:22:18.531Z,6.30
2023-05-17T00:24:46.785Z,4.10
2023-05-17T00:27:15.306Z,4.80
2023-05-17T00:29:43.921Z,4.88
2023-05-17T00:32:12.761Z,4.38
2023-05-17T00:34:41.030Z,4.00
2023-05-17T00:37:09.347Z,2.25
2023-05-17T00:39:37.564Z,2.35
2023-05-17T00:42:06.164Z,4.20
2023-05-17T00:44:34.448Z,2.05
2023-05-17T00:47:03.221Z,3.08
2023-05-17T00:49:31.658Z,1.92
2023-05-17T00:52:00.173Z,4.82
2023-05-17T00:54:28.775Z,2.08
2023-05-17T00:56:57.958Z,2.75
2023-05-17T00:59:28.092Z,2.97
2023-05-17T01:01:58.159Z,3.13
2023-05-17T01:04:26.556Z,2.72
2023-05-17T01:06:55.056Z,2.25
2023-05-17T01:09:23.384Z,4.43
2023-05-17T01:12:07.296Z,4.22
2023-05-17T01:14:58.624Z,5.30
2023-05-17T01:17:50.588Z,6.63
2023-05-17T01:20:34.318Z,5.72
2023-05-17T01:23:21.146Z,9.93
2023-05-17T01:26:19.528Z,7.03
2023-05-17T01:28:52.558Z,9.02
2023-05-17T01:31:22.273Z,11.10
2023-05-17T01:33:50.923Z,9.60
2023-05-17T01:36:20.533Z,8.90
2023-05-17T01:38:48.771Z,8.02
2023-05-17T01:41:43.427Z,10.05
2023-05-17T01:44:20.685Z,9.82
2023-05-17T01:46:55.900Z,11.68
2023-05-17T01:49:32.740Z,12.48
2023-05-17T01:52:13.035Z,9.70
2023-05-17T01:55:16.256Z,8.00
2023-05-17T01:57:48.926Z,8.43
2023-05-17T02:00:18.307Z,5.97
2023-05-17T02:02:47.648Z,8.48
2023-05-17T02:05:16.183Z,7.72
2023-05-17T02:07:44.505Z,8.27
2023-05-17T02:10:13.118Z,8.98
2023-05-17T02:12:44.363Z,9.90
2023-05-17T02:15:13.945Z,10.55
2023-05-17T02:17:42.586Z,9.05
2023-05-17T02:20:12.043Z,10.05
2023-05-17T02:22:40.862Z,10.40
2023-05-17T02:25:09.643Z,6.88
2023-05-17T02:27:38.009Z,8.68
2023-05-17T02:30:07.047Z,8.82
2023-05-17T02:32:35.603Z,8.45
2023-05-17T02:35:04.230Z,8.32
2023-05-17T02:37:32.539Z,10.95
2023-05-17T02:40:00.825Z,11.93
2023-05-17T02:42:29.119Z,12.02
2023-05-17T02:44:58.135Z,13.48
2023-05-17T02:47:26.503Z,14.43
2023-05-17T02:49:54.837Z,14.30
2023-05-17T02:52:23.119Z,9.88
2023-05-17T02:54:51.788Z,9.88
2023-05-17T02:57:20.376Z,14.38
2023-05-17T02:59:48.890Z,13.43
2023-05-17T03:02:17.597Z,12.60
2023-05-17T03:04:46.116Z,15.52
2023-05-17T03:07:14.538Z,13.52
2023-05-17T03:09:43.917Z,17.45
2023-05-17T03:12:12.274Z,15.43
2023-05-17T03:14:41.177Z,16.90
2023-05-17T03:17:11.089Z,14.88
2023-05-17T03:19:41.108Z,13.15
2023-05-17T03:22:09.623Z,16.45
2023-05-17T03:24:38.251Z,14.70
2023-05-17T03:27:07.205Z,15.65
2023-05-17T03:29:37.066Z,17.50
2023-05-17T03:32:06.734Z,18.58
2023-05-17T03:34:35.109Z,16.38
2023-05-17T03:37:03.434Z,17.25
2023-05-17T03:39:31.782Z,17.60
2023-05-17T03:42:00.218Z,18.85
2023-05-17T03:44:31.585Z,17.58
2023-05-17T03:46:59.883Z,16.27
2023-05-17T03:49:28.474Z,8.75
2023-05-17T03:51:57.248Z,8.00
2023-05-17T03:54:25.615Z,13.38
2023-05-17T03:56:53.939Z,11.73
2023-05-17T03:59:22.352Z,14.50
2023-05-17T04:01:50.776Z,12.32
2023-05-17T04:04:19.005Z,8.38
2023-05-17T04:06:47.566Z,8.27
2023-05-17T04:09:17.090Z,9.88
2023-05-17T04:11:45.409Z,8.18
2023-05-17T04:14:13.768Z,9.52
2023-05-17T04:16:42.117Z,10.27
2023-05-17T04:19:11.220Z,10.68
2023-05-17T04:21:40.971Z,9.60
2023-05-17T04:24:09.737Z,11.13
2023-05-17T04:26:38.066Z,8.57
2023-05-17T04:29:06.964Z,14.10
2023-05-17T04:31:35.477Z,7.95
2023-05-17T04:34:03.816Z,9.13
2023-05-17T04:36:32.387Z,13.65
2023-05-17T04:39:05.557Z,11.85
2023-05-17T04:41:33.998Z,12.43
2023-05-17T04:44:04.289Z,13.77
2023-05-17T04:46:37.344Z,10.60
2023-05-17T04:49:06.051Z,12.13
2023-05-17T04:51:34.980Z,18.30
2023-05-17T04:54:06.981Z,12.68
2023-05-17T04:56:36.629Z,12.05
2023-05-17T04:59:08.143Z,13.15
2023-05-17T05:01:37.054Z,16.80
2023-05-17T05:04:07.010Z,17.35
2023-05-17T05:09:09.878Z,19.85
2023-05-17T05:11:40.460Z,14.85
2023-05-17T05:14:08.806Z,18.00
2023-05-17T05:16:37.312Z,14.88
2023-05-17T05:19:06.899Z,13.85
2023-05-17T05:21:35.724Z,17.60
2023-05-17T05:24:04.417Z,12.20
2023-05-17T05:26:33.052Z,8.98
2023-05-17T05:29:04.221Z,9.40
2023-05-17T05:31:32.678Z,4.70
2023-05-17T05:34:03.510Z,4.70
2023-05-17T05:36:32.057Z,8.57
2023-05-17T05:39:02.826Z,3.47
2023-05-17T05:41:33.421Z,3.00
2023-05-17T05:44:01.768Z,4.10
2023-05-17T05:46:30.777Z,3.67
2023-05-17T05:49:00.029Z,6.30
2023-05-17T05:51:29.628Z,3.78
2023-05-17T05:53:58.593Z,3.88
2023-05-17T05:56:28.149Z,4.72
2023-05-17T05:58:57.676Z,3.65
2023-05-17T06:01:26.699Z,5.22
2023-05-17T06:03:55.047Z,2.40
2023-05-17T06:06:23.539Z,3.88
2023-05-17T06:08:52.045Z,5.60
2023-05-17T06:11:20.834Z,5.20
2023-05-17T06:13:51.586Z,5.07
2023-05-17T06:16:19.957Z,7.97
2023-05-17T06:18:51.062Z,10.50
2023-05-17T06:21:19.727Z,10.57
2023-05-17T06:23:48.952Z,19.02
2023-05-17T06:26:17.306Z,14.88
2023-05-17T06:28:46.117Z,15.63
2023-05-17T06:31:14.336Z,16.50
2023-05-17T06:33:42.723Z,15.63
2023-05-17T06:36:11.121Z,17.27
2023-05-17T06:38:39.487Z,14.57
2023-05-17T06:41:07.732Z,14.25
2023-05-17T06:43:37.699Z,22.20
2023-05-17T06:46:06.211Z,23.23
2023-05-17T06:48:34.570Z,23.85
2023-05-17T06:51:03.047Z,22.50
2023-05-17T06:53:31.416Z,21.73
2023-05-17T06:55:59.743Z,19.92
2023-05-17T06:58:28.143Z,21.55
2023-05-17T07:00:57.432Z,26.67
2023-05-17T07:03:26.546Z,23.13
2023-05-17T07:05:54.920Z,20.42
2023-05-17T07:08:23.167Z,19.73
2023-05-17T07:10:54.924Z,18.70
2023-05-17T07:13:23.409Z,19.23
2023-05-17T07:15:51.842Z,17.48
2023-05-17T07:18:20.248Z,19.10
2023-05-17T07:20:48.616Z,17.35
2023-05-17T07:23:16.931Z,16.55
2023-05-17T07:25:46.485Z,18.05
2023-05-17T07:28:14.838Z,19.15
2023-05-17T07:30:43.256Z,19.52
2023-05-17T07:33:11.682Z,17.95
2023-05-17T07:35:40.002Z,15.65
2023-05-17T07:38:08.300Z,21.15
2023-05-17T07:40:36.594Z,15.82
2023-05-17T07:43:04.855Z,21.15
2023-05-17T07:45:33.242Z,18.88
2023-05-17T07:48:01.697Z,16.13
2023-05-17T07:50:30.509Z,19.73
2023-05-17T07:52:58.757Z,17.73
2023-05-17T07:55:27.226Z,18.08
2023-05-17T07:57:55.620Z,17.17
2023-05-17T08:00:24.437Z,16.92
2023-05-17T08:02:52.781Z,16.85
2023-05-17T08:05:21.501Z,17.30
2023-05-17T08:07:49.743Z,20.50
2023-05-17T08:10:18.081Z,20.30
2023-05-17T08:12:46.790Z,22.52
2023-05-17T08:15:15.097Z,17.88
2023-05-17T08:17:43.478Z,15.40
2023-05-17T08:20:12.240Z,16.95
2023-05-17T08:22:41.320Z,15.52
2023-05-17T08:25:10.021Z,19.63
2023-05-17T08:27:39.115Z,15.23
2023-05-17T08:30:11.639Z,13.80
2023-05-17T08:32:45.035Z,17.25
2023-05-17T08:35:13.590Z,17.13
2023-05-17T08:37:43.013Z,15.05
2023-05-17T08:40:11.642Z,15.77
2023-05-17T08:42:40.975Z,13.63
2023-05-17T08:45:11.216Z,21.38
2023-05-17T08:47:42.459Z,19.35
2023-05-17T08:50:12.998Z,18.85
2023-05-17T08:52:44.846Z,15.63
2023-05-17T08:55:16.687Z,15.93
2023-05-17T08:57:47.106Z,16.23
2023-05-17T09:00:19.718Z,22.27
2023-05-17T09:02:48.712Z,18.07
2023-05-17T09:05:17.417Z,15.48
2023-05-17T09:07:47.755Z,20.40
2023-05-17T09:10:16.065Z,12.07
2023-05-17T09:12:45.020Z,15.00
2023-05-17T09:15:19.081Z,12.57
2023-05-17T09:17:55.419Z,14.15
2023-05-17T09:20:36.811Z,16.05
2023-05-17T09:23:10.295Z,13.65
2023-05-17T09:25:38.950Z,12.25
2023-05-17T09:28:07.914Z,13.02
2023-05-17T09:30:40.071Z,14.70
2023-05-17T09:33:11.145Z,17.00
2023-05-17T09:35:40.098Z,13.15
2023-05-17T09:38:13.375Z,13.48
2023-05-17T09:43:13.053Z,12.13
2023-05-17T09:45:41.454Z,14.65
2023-05-17T09:48:22.331Z,12.02
2023-05-17T09:50:52.263Z,10.82
2023-05-17T09:53:27.306Z,9.57
2023-05-17T09:55:58.770Z,8.32
2023-05-17T09:58:28.833Z,13.15
2023-05-17T10:01:01.914Z,11.15
2023-05-17T10:03:39.639Z,14.52
2023-05-17T10:06:13.417Z,11.48
2023-05-17T10:08:54.161Z,12.55
2023-05-17T10:11:35.050Z,13.77
2023-05-17T10:14:18.697Z,10.43
2023-05-17T10:19:16.612Z,11.95
2023-05-17T10:21:45.354Z,8.25
2023-05-17T10:24:13.951Z,8.02
2023-05-17T10:26:42.852Z,6.25
2023-05-17T10:29:11.746Z,6.03
2023-05-17T10:31:43.513Z,10.18
2023-05-17T10:34:12.814Z,6.03
2023-05-17T10:36:43.445Z,6.45
2023-05-17T10:39:12.502Z,5.53
2023-05-17T10:41:44.424Z,5.22
2023-05-17T10:44:17.625Z,7.93
2023-05-17T10:47:04.036Z,4.22
2023-05-17T10:49:34.411Z,5.13
2023-05-17T10:52:16.860Z,4.00
2023-05-17T10:54:48.271Z,6.68
2023-05-17T10:57:49.243Z,8.20
2023-05-17T11:00:31.346Z,3.72
2023-05-17T11:03:14.027Z,5.32
2023-05-17T11:05:44.909Z,2.30
2023-05-17T11:08:22.507Z,5.55
2023-05-17T11:11:27.943Z,4.72
2023-05-17T11:13:58.108Z,7.68
2023-05-17T11:16:34.383Z,5.00
2023-05-17T11:19:12.039Z,4.95
2023-05-17T11:21:47.965Z,3.10
2023-05-17T11:24:28.385Z,4.10
2023-05-17T11:27:00.410Z,4.72
2023-05-17T11:29:31.955Z,5.35
2023-05-17T11:32:05.829Z,3.78
2023-05-17T11:34:34.649Z,5.97
2023-05-17T11:37:04.931Z,4.80
2023-05-17T11:39:33.324Z,5.47
2023-05-17T11:42:01.994Z,3.50
2023-05-17T11:44:32.113Z,2.20
2023-05-17T11:47:11.580Z,2.47
2023-05-17T11:49:41.222Z,6.85
2023-05-17T11:52:09.745Z,1.40
2023-05-17T11:54:40.359Z,2.55
2023-05-17T11:57:11.306Z,3.40
2023-05-17T11:59:40.322Z,2.92
2023-05-17T12:02:09.158Z,1.10
2023-05-17T12:04:39.278Z,2.38
2023-05-17T12:07:11.218Z,1.35
2023-05-17T12:09:40.777Z,1.98
2023-05-17T12:12:09.732Z,0.57
2023-05-17T12:14:38.372Z,0.65
2023-05-17T12:17:09.821Z,2.55
2023-05-17T12:19:38.383Z,1.38
2023-05-17T12:22:13.887Z,1.17
2023-05-17T12:24:43.184Z,0.20
2023-05-17T12:27:11.713Z,2.58
2023-05-17T12:29:40.763Z,0.68
2023-05-17T12:32:10.519Z,0.85
2023-05-17T12:34:39.472Z,2.00
2023-05-17T12:37:10.888Z,3.47
2023-05-17T12:39:40.464Z,3.13
2023-05-17T12:42:10.170Z,6.10
2023-05-17T12:44:39.155Z,2.92
2023-05-17T12:47:09.695Z,2.40
2023-05-17T12:49:51.730Z,2.13
2023-05-17T12:52:20.116Z,3.97
2023-05-17T12:54:50.436Z,1.52
2023-05-17T12:57:20.140Z,2.80
2023-05-17T12:59:50.207Z,2.00
2023-05-17T13:02:20.748Z,2.67
2023-05-17T13:04:49.488Z,2.60
2023-05-17T13:07:25.024Z,2.85
2023-05-17T13:09:53.375Z,4.20
2023-05-17T13:12:23.626Z,2.42
2023-05-17T13:14:53.725Z,1.48
2023-05-17T13:17:47.138Z,3.33
2023-05-17T13:20:16.203Z,1.08
2023-05-17T13:22:48.326Z,2.80
2023-05-17T13:25:16.960Z,3.97
2023-05-17T13:27:48.763Z,1.55
2023-05-17T13:30:17.617Z,2.95
2023-05-17T13:32:47.447Z,3.22
2023-05-17T13:35:16.201Z,2.80
2023-05-17T13:37:44.482Z,2.78
2023-05-17T13:40:13.352Z,3.67
2023-05-17T13:42:41.814Z,3.33
2023-05-17T13:45:11.778Z,1.38
2023-05-17T13:47:40.479Z,1.90
2023-05-17T13:50:09.777Z,1.88
2023-05-17T13:52:38.099Z,0.80
2023-05-17T13:55:07.398Z,1.60
2023-05-17T13:57:35.717Z,2.08
2023-05-17T14:00:05.354Z,2.50
2023-05-17T14:02:34.086Z,2.55
2023-05-17T14:05:02.486Z,0.35
2023-05-17T14:07:30.754Z,2.70
2023-05-17T14:09:59.112Z,5.88
2023-05-17T14:12:27.583Z,0.80
2023-05-17T14:14:56.032Z,2.28
2023-05-17T14:17:26.949Z,1.15
2023-05-17T14:19:55.325Z,1.52
2023-05-17T14:22:23.689Z,0.68
2023-05-17T14:24:51.997Z,1.85
2023-05-17T14:27:20.813Z,11.25
2023-05-17T14:29:49.101Z,3.90
2023-05-17T14:32:17.464Z,1.25
2023-05-17T14:34:46.053Z,0.90
2023-05-17T14:37:14.993Z,2.90
2023-05-17T14:39:49.442Z,1.48
2023-05-17T14:42:27.725Z,0.60
2023-05-17T14:44:56.142Z,2.88
2023-05-17T14:47:24.533Z,1.02
2023-05-17T14:49:52.811Z,2.00
2023-05-17T14:52:21.054Z,2.65
2023-05-17T14:54:49.446Z,1.58
2023-05-17T14:57:22.679Z,2.15
2023-05-17T14:59:51.098Z,1.20
2023-05-17T15:02:19.641Z,0.73
2023-05-17T15:04:48.197Z,1.23
2023-05-17T15:07:16.923Z,0.85
2023-05-17T15:09:46.070Z,1.33
2023-05-17T15:12:14.476Z,1.25
2023-05-17T15:14:43.473Z,3.47
2023-05-17T15:17:11.862Z,2.83
2023-05-17T15:19:40.340Z,0.98
2023-05-17T15:22:11.661Z,7.05
2023-05-17T15:24:40.679Z,0.80
2023-05-17T15:27:09.206Z,1.58
2023-05-17T15:29:40.210Z,1.63
2023-05-17T15:32:09.681Z,3.72
2023-05-17T15:34:39.754Z,3.17
2023-05-17T15:37:19.134Z,3.78
2023-05-17T15:39:47.887Z,2.15
2023-05-17T15:42:16.415Z,4.00
2023-05-17T15:44:44.702Z,1.20
2023-05-17T15:47:13.291Z,3.03
2023-05-17T15:49:42.534Z,0.95
2023-05-17T15:52:12.800Z,0.65
2023-05-17T15:54:42.401Z,1.17
2023-05-17T15:57:10.794Z,1.70
2023-05-17T15:59:39.414Z,2.20
2023-05-17T16:02:07.669Z,1.20
2023-05-17T16:04:36.118Z,0.47
2023-05-17T16:07:04.809Z,1.35
2023-05-17T16:09:33.548Z,0.47
2023-05-17T16:12:01.945Z,0.30
2023-05-17T16:14:30.464Z,1.13
2023-05-17T16:17:03.780Z,2.63
2023-05-17T16:19:34.126Z,3.70
2023-05-17T16:22:03.139Z,0.93
2023-05-17T16:24:31.839Z,1.58
2023-05-17T16:27:04.270Z,1.13
2023-05-17T16:29:39.820Z,0.90
2023-05-17T16:32:08.765Z,1.33
2023-05-17T16:34:37.360Z,1.33
2023-05-17T16:37:05.729Z,2.33
2023-05-17T16:39:34.035Z,0.52
2023-05-17T16:42:02.607Z,0.63
2023-05-17T16:44:31.080Z,0.85
2023-05-17T16:47:00.534Z,2.22
2023-05-17T16:49:30.241Z,1.15
2023-05-17T16:51:58.617Z,3.72
2023-05-17T16:54:28.296Z,1.48
2023-05-17T16:56:57.289Z,0.98
2023-05-17T16:59:25.759Z,0.75
2023-05-17T17:01:54.252Z,4.35
2023-05-17T17:04:22.816Z,0.75
2023-05-17T17:06:52.093Z,0.82
2023-05-17T17:09:20.643Z,2.88
2023-05-17T17:11:49.081Z,0.63
2023-05-17T17:14:17.764Z,1.55
2023-05-17T17:16:46.085Z,1.38
2023-05-17T17:19:14.414Z,0.75
2023-05-17T17:21:43.771Z,1.70
2023-05-17T17:24:12.471Z,2.00
2023-05-17T17:26:40.773Z,0.98
2023-05-17T17:29:10.424Z,1.90
2023-05-17T17:31:39.047Z,2.40
2023-05-17T17:34:07.530Z,0.77
2023-05-17T17:36:35.800Z,2.13
2023-05-17T17:39:04.168Z,3.10
2023-05-17T17:41:33.585Z,1.40
2023-05-17T17:44:02.112Z,4.68
2023-05-17T17:46:30.747Z,2.90
2023-05-17T17:48:59.061Z,1.95
2023-05-17T17:51:27.361Z,4.40
2023-05-17T17:53:56.250Z,1.02
2023-05-17T17:56:25.895Z,1.83
2023-05-17T17:58:55.940Z,4.40
2023-05-17T18:01:24.572Z,4.88
2023-05-17T18:03:53.032Z,2.55
2023-05-17T18:06:21.468Z,2.53
2023-05-17T18:08:49.814Z,0.95
2023-05-17T18:11:18.236Z,0.80
2023-05-17T18:13:47.009Z,2.65
2023-05-17T18:16:15.428Z,1.55
2023-05-17T18:18:44.358Z,1.73
2023-05-17T18:21:12.817Z,1.30
2023-05-17T18:23:41.220Z,1.85
2023-05-17T18:26:09.569Z,1.13
2023-05-17T18:28:42.276Z,1.95
2023-05-17T18:31:11.799Z,1.48
2023-05-17T18:33:40.021Z,1.90
2023-05-17T18:36:08.417Z,0.80
2023-05-17T18:38:36.728Z,2.08
2023-05-17T18:41:05.209Z,2.55
2023-05-17T18:43:33.462Z,1.52
2023-05-17T18:46:01.753Z,3.42
2023-05-17T18:48:30.057Z,1.65
2023-05-17T18:50:59.901Z,3.40
2023-05-17T18:53:29.372Z,3.80
2023-05-17T18:56:01.557Z,2.30
2023-05-17T18:58:30.706Z,1.38
2023-05-17T19:01:00.230Z,3.30
2023-05-17T19:03:28.593Z,1.90
2023-05-17T19:05:56.953Z,1.38
2023-05-17T19:08:25.417Z,1.77
2023-05-17T19:10:53.722Z,3.25
2023-05-17T19:13:22.146Z,1.33
2023-05-17T19:15:50.558Z,4.43
2023-05-17T19:18:18.905Z,1.77
2023-05-17T19:20:47.315Z,3.15
2023-05-17T19:23:15.745Z,2.72
2023-05-17T19:25:44.106Z,3.17
2023-05-17T19:28:12.411Z,2.33
2023-05-17T19:30:40.832Z,3.67
2023-05-17T19:33:10.656Z,1.70
2023-05-17T19:35:42.401Z,3.75
2023-05-17T19:38:12.991Z,1.42
2023-05-17T19:40:46.516Z,1.73
2023-05-17T19:43:15.732Z,2.80
2023-05-17T19:45:44.704Z,2.63
2023-05-17T19:48:13.318Z,2.70
2023-05-17T19:50:41.899Z,2.55
2023-05-17T19:53:12.002Z,3.40
2023-05-17T19:55:41.220Z,4.72
2023-05-17T19:58:09.587Z,2.28
2023-05-17T20:00:40.105Z,2.17
2023-05-17T20:03:08.910Z,5.97
2023-05-17T20:05:37.449Z,4.07
2023-05-17T20:08:08.124Z,1.88
2023-05-17T20:10:37.088Z,1.63
2023-05-17T20:13:05.686Z,2.15
2023-05-17T20:15:34.715Z,1.52
2023-05-17T20:18:03.500Z,1.80
2023-05-17T20:20:32.298Z,3.25
2023-05-17T20:23:00.811Z,1.80
2023-05-17T20:25:29.161Z,3.42
2023-05-17T20:27:57.458Z,3.47
2023-05-17T20:30:26.251Z,1.58
2023-05-17T20:32:54.915Z,3.03
2023-05-17T20:35:23.298Z,1.35
2023-05-17T20:37:51.653Z,2.08
2023-05-17T20:40:20.430Z,5.22
2023-05-17T20:42:49.040Z,2.67
2023-05-17T20:45:17.838Z,1.95
2023-05-17T20:47:46.398Z,0.90
2023-05-17T20:50:15.524Z,2.05
2023-05-17T20:52:43.757Z,3.70
2023-05-17T20:55:12.066Z,1.55
2023-05-17T20:57:40.520Z,3.92
2023-05-17T21:00:11.842Z,3.25
2023-05-17T21:02:40.777Z,1.70
2023-05-17T21:05:10.916Z,4.47
2023-05-17T21:07:42.651Z,1.90
2023-05-17T21:10:11.149Z,4.68
2023-05-17T21:12:39.499Z,2.22
2023-05-17T21:17:56.599Z,3.72
2023-05-17T21:20:25.026Z,2.88
2023-05-17T21:22:53.476Z,4.90
2023-05-17T21:25:21.862Z,5.03
2023-05-17T21:27:51.401Z,2.38
2023-05-17T21:30:19.782Z,1.65
2023-05-17T21:32:48.158Z,3.65
2023-05-17T21:35:16.562Z,1.63
2023-05-17T21:37:44.898Z,0.88
2023-05-17T21:40:13.700Z,1.67
2023-05-17T21:42:42.184Z,2.83
2023-05-17T21:45:11.602Z,6.28
2023-05-17T21:47:39.885Z,3.05
2023-05-17T21:50:08.639Z,1.10
2023-05-17T21:52:37.678Z,2.80
2023-05-17T21:55:06.697Z,2.50
2023-05-17T21:57:36.633Z,1.73
2023-05-17T22:00:07.916Z,3.45
2023-05-17T22:02:36.451Z,1.85
2023-05-17T22:05:05.041Z,1.73
2023-05-17T22:07:33.742Z,3.88
2023-05-17T22:10:02.464Z,2.17
2023-05-17T22:12:30.853Z,1.85
2023-05-17T22:14:59.050Z,3.65
2023-05-17T22:17:34.997Z,2.40
2023-05-17T22:20:11.807Z,2.63
2023-05-17T22:22:40.139Z,2.13
2023-05-17T22:25:09.097Z,2.22
2023-05-17T22:27:37.385Z,2.72
2023-05-17T22:30:07.514Z,2.70
2023-05-17T22:32:37.482Z,4.72
2023-05-17T22:35:06.077Z,1.50
2023-05-17T22:37:34.444Z,5.05
2023-05-17T22:40:03.415Z,2.85
2023-05-17T22:42:31.699Z,1.98
2023-05-17T22:45:00.220Z,2.15
2023-05-17T22:47:28.509Z,2.13
2023-05-17T22:49:57.704Z,2.92
2023-05-17T22:52:26.446Z,2.92
2023-05-17T22:54:54.879Z,4.53
2023-05-17T22:57:23.136Z,4.07
2023-05-17T22:59:51.470Z,1.90
2023-05-17T23:02:19.869Z,3.25
2023-05-17T23:04:48.186Z,2.47
2023-05-17T23:07:16.488Z,4.57
2023-05-17T23:09:44.781Z,2.92
2023-05-17T23:12:14.134Z,4.63
2023-05-17T23:14:42.671Z,3.42
2023-05-17T23:17:12.052Z,1.95
2023-05-17T23:19:40.657Z,2.25
2023-05-17T23:22:10.766Z,2.60
2023-05-17T23:24:39.467Z,2.25
2023-05-17T23:27:10.368Z,3.40
2023-05-17T23:29:41.479Z,5.65
2023-05-17T23:32:09.833Z,1.38
2023-05-17T23:34:38.050Z,1.02
2023-05-17T23:37:06.651Z,1.70
2023-05-17T23:39:34.954Z,2.50
2023-05-17T23:42:03.263Z,1.52
2023-05-17T23:44:33.393Z,1.55
2023-05-17T23:47:01.731Z,0.45
2023-05-17T23:49:30.281Z,1.98
2023-05-17T23:51:58.635Z,0.43
2023-05-17T23:54:26.877Z,0.60
2023-05-17T23:56:55.144Z,4.20
2023-05-17T23:59:24.418Z,0.40
